Bonnie View, Texas
Current Conditions -  °F | °C
As of 5:53 AM on Friday 24 Oct 2014 (Local Time) from KRKP Reporting Station
Clear Clear  
Wind Chill: 66°   Ceiling: Unl
Heat Index: 66°   Visibility: 8mi
Dew Point: 64°   Wind: 3mph
Humidity: 93%   Direction: 30°NNE
Pressure: 30.09"   Gusts: NA
Location:  28.1946°N, 97.3573°W
Report Text: KRKP 241053Z AUTO 03003KT 8SM CLR 19/18 A3009 RMK AO2 SLP192 T01890178 $
Loading
Personal Weather Stations






























Interactive Weather Map
Tropical Storm Tracking
New forecast layout! Learn more

10-Day Weather Forecast

Advertisements
Track Severe Weather on mobile